Detall de PIREP

Printer-friendly versionPDF version

[2011/01/11 08:54:00]
Flight IATA:CT3203
Pilot Number:011
Company ICAO:CAT
Aircraft Type:B738/F
PAX:160
Departing Airport: LGAV
Destination Airport: LEPA
Alternate Airport:LEBL
Online: VATSIM
Route:ATV UN604 RUTOM UM601 ALG UM603 MHN UN851 BASSO
Flight Level:FL360
No Slew and time accel
No pause
Crash detect
Detect pilot in Cockpit between each 30 and 45 minutes
08:54 Zero fuel Weight: 134992 Lbs, Fuel Weight: 25332 Lbs
08:54 VATSIM:LGAV 110820Z VRB01KT 9999 FEW018 BKN035 13/09 Q1022 NOSIG
08:54 VATSIM:LEPA 110830Z 00000KT 9999 FEW015 08/07 Q1020 NOSIG
08:57 Parking Brakes off
09:05 Take-off
09:05 Take off Weight: 159208 Lbs
09:05 Wind: 329º @ 003 Knots Heading: 217º
09:05 POS N37º 56´ 08´´ E023º 57´ 17´´
09:05 Flaps:6 at 181 Knots
09:05 Gear Up: 184 Knots
09:06 Flaps:5 at 199 Knots
09:06 Flaps:4 at 214 Knots
09:07 Flaps:3 at 220 Knots
09:07 Flaps:2 at 225 Knots
09:07 Flaps:1 at 230 Knots
09:07 Flaps:0 at 231 Knots
09:20 Wind:076º@000 Knots Heading: 264º Ground Speed: 375 Knots Altitude 32125 ft
09:22 TOC
09:22 Fuel Weight: 20653 Lb
09:35 Wind:126º@034 Knots Heading: 283º Ground Speed: 486 Knots Altitude 36217 ft
09:50 Wind:191º@009 Knots Heading: 287º Ground Speed: 460 Knots Altitude 36161 ft
10:05 Wind:270º@008 Knots Heading: 277º Ground Speed: 452 Knots Altitude 36167 ft
10:20 Wind:092º@006 Knots Heading: 287º Ground Speed: 461 Knots Altitude 36148 ft
10:35 Wind:245º@012 Knots Heading: 285º Ground Speed: 448 Knots Altitude 36131 ft
10:50 Wind:203º@040 Knots Heading: 280º Ground Speed: 446 Knots Altitude 36148 ft
11:05 Wind:239º@020 Knots Heading: 252º Ground Speed: 436 Knots Altitude 36145 ft
11:10 TOD
11:10 Fuel Weight: 11539 Lb
11:20 Wind:250º@042 Knots Heading: 253º Ground Speed: 347 Knots Altitude 18982 ft
11:34 Flaps:1 at 221 Knots
11:34 Flaps:2 at 219 Knots
11:34 Flaps:3 at 217 Knots
11:34 Flaps:4 at 216 Knots
11:35 Wind:259º@021 Knots Heading: 236º Ground Speed: 204 Knots Altitude 4507 ft
11:35 Flaps:5 at 202 Knots
11:35 Gear Down: 200 Knots
11:36 Flaps:6 at 161 Knots
11:37 Flaps:7 at 144 Knots
11:38 Flaps:8 at 139 Knots
11:40 TouchDown:Rate -171 ft/min Speed: 119 Knots
11:41 VATSIM:LEPA 111130Z 22005KT 170V260 9999 FEW020 15/06 Q1020 NOSIG
11:41 Land
11:41 Wind:238º@012 Knots
11:41 Heading: 238º
11:41 Flight Duration: 02:36
11:41 Landing Weight: 145000 Lbs
11:41 POS N39º 33´ 20´´ E002º 43´ 42´´
11:44 Parking brakes on
11:44 Block to Block Duration: 02:47
11:44 Final Fuel: 9735 Lbls
11:44 Spent Fuel: 15597 Lbls
11:44 Flight Length: 942 NM
11:44 TOD Land Length: 146 NM

Exportar CSV

Powered by Drupal - Modified by Danger4k